sensor_id;sensor_type;location;lat;lon;timestamp;pressure;altitude;pressure_sealevel;temperature;humidity
55757;BME280;41676;44.610;44.078;2023-04-08T00:00:01;99961.34;;;8.45;100.00
55757;BME280;41676;44.610;44.078;2023-04-08T00:05:04;100094.03;;;9.33;100.00
55757;BME280;41676;44.610;44.078;2023-04-08T00:10:06;100123.00;;;9.59;100.00
55757;BME280;41676;44.610;44.078;2023-04-08T00:15:07;100117.06;;;9.57;100.00
55757;BME280;41676;44.610;44.078;2023-04-08T00:20:08;100055.25;;;9.08;100.00
55757;BME280;41676;44.610;44.078;2023-04-08T00:25:09;100093.69;;;9.28;100.00
55757;BME280;41676;44.610;44.078;2023-04-08T00:30:10;100103.16;;;9.31;100.00
55757;BME280;41676;44.610;44.078;2023-04-08T00:35:11;100031.09;;;8.86;100.00
55757;BME280;41676;44.610;44.078;2023-04-08T00:40:12;100076.47;;;9.08;100.00
55757;BME280;41676;44.610;44.078;2023-04-08T00:45:13;100107.75;;;9.04;100.00
55757;BME280;41676;44.610;44.078;2023-04-08T00:50:14;100091.47;;;8.75;100.00
55757;BME280;41676;44.610;44.078;2023-04-08T00:55:15;100122.47;;;8.90;100.00
55757;BME280;41676;44.610;44.078;2023-04-08T01:00:16;100090.16;;;8.71;100.00
55757;BME280;41676;44.610;44.078;2023-04-08T01:11:08;100119.47;;;8.77;100.00
55757;BME280;41676;44.610;44.078;2023-04-08T01:16:12;100119.97;;;8.81;100.00
55757;BME280;41676;44.610;44.078;2023-04-08T01:21:14;100121.31;;;8.93;100.00
55757;BME280;41676;44.610;44.078;2023-04-08T01:26:23;99941.03;;;7.95;100.00
55757;BME280;41676;44.610;44.078;2023-04-08T01:31:26;100020.91;;;8.41;100.00
55757;BME280;41676;44.610;44.078;2023-04-08T01:36:27;100062.94;;;8.52;100.00
55757;BME280;41676;44.610;44.078;2023-04-08T01:41:35;100062.47;;;8.57;100.00
55757;BME280;41676;44.610;44.078;2023-04-08T01:46:38;99974.13;;;7.99;100.00
55757;BME280;41676;44.610;44.078;2023-04-08T01:51:40;100094.97;;;8.75;100.00
55757;BME280;41676;44.610;44.078;2023-04-08T01:56:41;100012.22;;;8.14;100.00
55757;BME280;41676;44.610;44.078;2023-04-08T02:01:44;100092.25;;;8.51;100.00
55757;BME280;41676;44.610;44.078;2023-04-08T02:06:47;100110.28;;;8.47;100.00
55757;BME280;41676;44.610;44.078;2023-04-08T02:11:47;100073.94;;;8.23;100.00
55757;BME280;41676;44.610;44.078;2023-04-08T02:17:26;100088.66;;;8.26;100.00
55757;BME280;41676;44.610;44.078;2023-04-08T02:22:28;100108.19;;;8.33;100.00
55757;BME280;41676;44.610;44.078;2023-04-08T02:27:33;100094.56;;;8.19;100.00
55757;BME280;41676;44.610;44.078;2023-04-08T02:32:35;100077.94;;;8.01;100.00
55757;BME280;41676;44.610;44.078;2023-04-08T02:37:37;100081.41;;;7.93;100.00
55757;BME280;41676;44.610;44.078;2023-04-08T02:42:38;100142.28;;;8.36;100.00
55757;BME280;41676;44.610;44.078;2023-04-08T02:47:39;100092.69;;;8.04;100.00
55757;BME280;41676;44.610;44.078;2023-04-08T02:52:39;100134.81;;;8.31;100.00
55757;BME280;41676;44.610;44.078;2023-04-08T02:57:41;100147.97;;;8.41;100.00
55757;BME280;41676;44.610;44.078;2023-04-08T03:02:42;100152.31;;;8.50;100.00
55757;BME280;41676;44.610;44.078;2023-04-08T03:07:43;100140.91;;;8.50;100.00
55757;BME280;41676;44.610;44.078;2023-04-08T03:12:44;100148.00;;;8.49;100.00
55757;BME280;41676;44.610;44.078;2023-04-08T03:17:45;100175.38;;;8.66;100.00
55757;BME280;41676;44.610;44.078;2023-04-08T03:22:45;100188.16;;;8.79;100.00
55757;BME280;41676;44.610;44.078;2023-04-08T03:27:46;100105.00;;;8.21;100.00
55757;BME280;41676;44.610;44.078;2023-04-08T03:32:47;100121.25;;;8.34;100.00
55757;BME280;41676;44.610;44.078;2023-04-08T03:37:48;100194.69;;;8.50;100.00
55757;BME280;41676;44.610;44.078;2023-04-08T03:42:49;100203.56;;;8.41;100.00
55757;BME280;41676;44.610;44.078;2023-04-08T03:47:50;100139.09;;;7.98;100.00
55757;BME280;41676;44.610;44.078;2023-04-08T03:52:50;100187.09;;;8.29;100.00
55757;BME280;41676;44.610;44.078;2023-04-08T03:57:51;100223.47;;;8.53;100.00
55757;BME280;41676;44.610;44.078;2023-04-08T04:02:52;100218.75;;;8.73;100.00
55757;BME280;41676;44.610;44.078;2023-04-08T04:07:53;100209.53;;;8.85;100.00
55757;BME280;41676;44.610;44.078;2023-04-08T04:12:53;100179.25;;;8.80;100.00
55757;BME280;41676;44.610;44.078;2023-04-08T04:17:54;100220.28;;;9.34;100.00
55757;BME280;41676;44.610;44.078;2023-04-08T04:22:55;100099.25;;;8.76;100.00
55757;BME280;41676;44.610;44.078;2023-04-08T04:27:56;100240.38;;;9.70;100.00
55757;BME280;41676;44.610;44.078;2023-04-08T04:32:56;100227.97;;;9.78;100.00
55757;BME280;41676;44.610;44.078;2023-04-08T04:37:57;100128.97;;;9.53;100.00
55757;BME280;41676;44.610;44.078;2023-04-08T04:42:58;100174.69;;;10.13;100.00
55757;BME280;41676;44.610;44.078;2023-04-08T04:47:59;100231.53;;;10.59;100.00
55757;BME280;41676;44.610;44.078;2023-04-08T04:53:00;100236.56;;;10.85;100.00
55757;BME280;41676;44.610;44.078;2023-04-08T04:58:00;100240.81;;;11.03;100.00
55757;BME280;41676;44.610;44.078;2023-04-08T05:03:01;100242.16;;;10.99;99.87
55757;BME280;41676;44.610;44.078;2023-04-08T05:08:02;100195.44;;;10.65;99.35
55757;BME280;41676;44.610;44.078;2023-04-08T05:13:03;100225.63;;;10.80;99.42
55757;BME280;41676;44.610;44.078;2023-04-08T05:18:03;100262.34;;;11.16;99.67
55757;BME280;41676;44.610;44.078;2023-04-08T05:23:05;100155.22;;;10.76;98.99
55757;BME280;41676;44.610;44.078;2023-04-08T05:28:07;100251.38;;;11.73;98.47
55757;BME280;41676;44.610;44.078;2023-04-08T05:33:07;100216.13;;;11.94;97.24
55757;BME280;41676;44.610;44.078;2023-04-08T05:38:08;100180.91;;;11.84;95.37
55757;BME280;41676;44.610;44.078;2023-04-08T05:43:09;100258.66;;;12.17;94.34
55757;BME280;41676;44.610;44.078;2023-04-08T05:48:10;100264.59;;;12.42;94.33
55757;BME280;41676;44.610;44.078;2023-04-08T05:53:11;100267.91;;;12.59;93.54
55757;BME280;41676;44.610;44.078;2023-04-08T05:58:12;100267.75;;;12.75;92.49
55757;BME280;41676;44.610;44.078;2023-04-08T06:03:12;100258.28;;;12.73;91.79
55757;BME280;41676;44.610;44.078;2023-04-08T06:08:13;100269.34;;;13.21;91.21
55757;BME280;41676;44.610;44.078;2023-04-08T06:13:14;100262.31;;;13.13;90.75
55757;BME280;41676;44.610;44.078;2023-04-08T06:18:16;100275.06;;;13.33;90.14
55757;BME280;41676;44.610;44.078;2023-04-08T06:23:17;100228.66;;;12.83;88.82
55757;BME280;41676;44.610;44.078;2023-04-08T06:28:18;100241.63;;;12.86;88.63
55757;BME280;41676;44.610;44.078;2023-04-08T06:33:18;100258.72;;;12.91;88.38
55757;BME280;41676;44.610;44.078;2023-04-08T06:38:19;100253.47;;;12.98;88.69
55757;BME280;41676;44.610;44.078;2023-04-08T06:43:21;100323.09;;;13.33;87.71
55757;BME280;41676;44.610;44.078;2023-04-08T06:48:21;100292.84;;;13.11;88.09
55757;BME280;41676;44.610;44.078;2023-04-08T06:53:23;100323.28;;;13.16;88.19
55757;BME280;41676;44.610;44.078;2023-04-08T06:58:24;100291.00;;;12.96;88.37
55757;BME280;41676;44.610;44.078;2023-04-08T07:03:25;100289.34;;;12.95;88.46
55757;BME280;41676;44.610;44.078;2023-04-08T07:08:26;100327.38;;;13.19;88.89
55757;BME280;41676;44.610;44.078;2023-04-08T07:13:28;100254.13;;;12.70;88.88
55757;BME280;41676;44.610;44.078;2023-04-08T07:18:30;100262.97;;;12.71;88.41
55757;BME280;41676;44.610;44.078;2023-04-08T07:23:31;100345.00;;;13.13;89.14
55757;BME280;41676;44.610;44.078;2023-04-08T07:28:32;100339.53;;;13.07;89.85
55757;BME280;41676;44.610;44.078;2023-04-08T07:33:32;100347.00;;;13.11;89.85
55757;BME280;41676;44.610;44.078;2023-04-08T07:38:33;100165.13;;;11.82;90.13
55757;BME280;41676;44.610;44.078;2023-04-08T07:43:34;100262.22;;;12.32;90.41
55757;BME280;41676;44.610;44.078;2023-04-08T07:48:36;100363.63;;;12.69;91.40
55757;BME280;41676;44.610;44.078;2023-04-08T07:53:38;100328.34;;;12.44;92.16
55757;BME280;41676;44.610;44.078;2023-04-08T07:58:40;100333.44;;;12.53;92.63
55757;BME280;41676;44.610;44.078;2023-04-08T08:03:41;100354.97;;;12.67;91.57
55757;BME280;41676;44.610;44.078;2023-04-08T08:08:42;100351.84;;;12.63;91.21
55757;BME280;41676;44.610;44.078;2023-04-08T08:13:43;100368.47;;;12.80;91.00
55757;BME280;41676;44.610;44.078;2023-04-08T08:18:43;100374.38;;;12.75;91.21
55757;BME280;41676;44.610;44.078;2023-04-08T08:23:44;100358.25;;;12.54;91.27
55757;BME280;41676;44.610;44.078;2023-04-08T08:28:45;100387.38;;;12.55;91.63
55757;BME280;41676;44.610;44.078;2023-04-08T08:33:46;100396.69;;;12.60;92.33
55757;BME280;41676;44.610;44.078;2023-04-08T08:38:47;100409.25;;;12.51;92.62
55757;BME280;41676;44.610;44.078;2023-04-08T08:43:48;100391.38;;;12.37;92.91
55757;BME280;41676;44.610;44.078;2023-04-08T08:48:49;100399.66;;;12.19;93.41
55757;BME280;41676;44.610;44.078;2023-04-08T08:53:50;100403.13;;;12.19;93.63
55757;BME280;41676;44.610;44.078;2023-04-08T08:58:51;100358.41;;;11.83;93.48
55757;BME280;41676;44.610;44.078;2023-04-08T09:04:08;100411.06;;;12.27;95.18
55757;BME280;41676;44.610;44.078;2023-04-08T09:09:09;100402.13;;;12.20;94.15
55757;BME280;41676;44.610;44.078;2023-04-08T09:14:21;100397.38;;;12.07;95.52
55757;BME280;41676;44.610;44.078;2023-04-08T09:19:22;100389.25;;;12.09;93.68
55757;BME280;41676;44.610;44.078;2023-04-08T09:24:29;100422.97;;;12.40;93.91
55757;BME280;41676;44.610;44.078;2023-04-08T09:29:31;100427.06;;;12.50;93.39
55757;BME280;41676;44.610;44.078;2023-04-08T09:34:33;100428.47;;;12.61;92.98
55757;BME280;41676;44.610;44.078;2023-04-08T09:39:34;100435.53;;;12.92;92.01
55757;BME280;41676;44.610;44.078;2023-04-08T09:44:36;100371.47;;;12.62;91.33
55757;BME280;41676;44.610;44.078;2023-04-08T09:49:54;100441.56;;;13.23;90.99
55757;BME280;41676;44.610;44.078;2023-04-08T09:55:04;100440.03;;;13.29;90.27
55757;BME280;41676;44.610;44.078;2023-04-08T10:00:13;100432.53;;;13.24;89.23
55757;BME280;41676;44.610;44.078;2023-04-08T10:05:15;100450.34;;;13.62;88.57
55757;BME280;41676;44.610;44.078;2023-04-08T10:10:17;100424.38;;;13.70;87.75
55757;BME280;41676;44.610;44.078;2023-04-08T10:25:40;100456.97;;;14.38;85.08
55757;BME280;41676;44.610;44.078;2023-04-08T10:35:52;100462.69;;;14.72;82.74
55757;BME280;41676;44.610;44.078;2023-04-08T10:40:53;100453.06;;;14.56;83.16
55757;BME280;41676;44.610;44.078;2023-04-08T10:45:54;100374.19;;;14.24;81.49
55757;BME280;41676;44.610;44.078;2023-04-08T11:01:06;100446.31;;;15.10;78.78
55757;BME280;41676;44.610;44.078;2023-04-08T11:06:07;100407.16;;;15.02;77.92
55757;BME280;41676;44.610;44.078;2023-04-08T11:11:08;100449.28;;;15.21;77.57
55757;BME280;41676;44.610;44.078;2023-04-08T11:16:10;100474.81;;;15.24;77.10
55757;BME280;41676;44.610;44.078;2023-04-08T11:21:11;100480.84;;;15.33;77.21
55757;BME280;41676;44.610;44.078;2023-04-08T11:26:12;100488.34;;;15.44;76.58
55757;BME280;41676;44.610;44.078;2023-04-08T11:31:15;100485.56;;;15.59;76.24
55757;BME280;41676;44.610;44.078;2023-04-08T11:36:17;100508.78;;;15.86;75.18
55757;BME280;41676;44.610;44.078;2023-04-08T11:41:18;100502.69;;;16.06;74.23
55757;BME280;41676;44.610;44.078;2023-04-08T11:46:19;100429.41;;;15.72;73.43
55757;BME280;41676;44.610;44.078;2023-04-08T11:51:19;100499.03;;;16.13;73.37
55757;BME280;41676;44.610;44.078;2023-04-08T11:56:21;100497.00;;;16.22;73.26
55757;BME280;41676;44.610;44.078;2023-04-08T12:01:26;100475.22;;;15.97;72.77
55757;BME280;41676;44.610;44.078;2023-04-08T12:06:27;100506.38;;;15.98;72.88
55757;BME280;41676;44.610;44.078;2023-04-08T12:11:28;100517.50;;;15.95;73.61
55757;BME280;41676;44.610;44.078;2023-04-08T12:16:29;100517.00;;;15.85;73.35
55757;BME280;41676;44.610;44.078;2023-04-08T12:21:30;100433.31;;;15.06;73.72
55757;BME280;41676;44.610;44.078;2023-04-08T12:26:31;100514.75;;;15.53;73.73
55757;BME280;41676;44.610;44.078;2023-04-08T12:31:32;100445.22;;;15.04;73.74
55757;BME280;41676;44.610;44.078;2023-04-08T12:36:33;100480.16;;;15.24;73.81
55757;BME280;41676;44.610;44.078;2023-04-08T12:41:34;100430.09;;;14.90;73.82
55757;BME280;41676;44.610;44.078;2023-04-08T12:46:35;100468.38;;;15.18;74.12
55757;BME280;41676;44.610;44.078;2023-04-08T12:51:35;100524.44;;;15.26;74.27
55757;BME280;41676;44.610;44.078;2023-04-08T12:56:36;100514.91;;;15.17;74.62
55757;BME280;41676;44.610;44.078;2023-04-08T13:01:38;100539.00;;;15.17;74.08
55757;BME280;41676;44.610;44.078;2023-04-08T13:06:39;100479.56;;;14.72;74.50
55757;BME280;41676;44.610;44.078;2023-04-08T13:11:40;100545.31;;;15.10;74.43
55757;BME280;41676;44.610;44.078;2023-04-08T13:16:41;100483.00;;;14.66;73.87
55757;BME280;41676;44.610;44.078;2023-04-08T13:21:42;100549.81;;;15.09;73.87
55757;BME280;41676;44.610;44.078;2023-04-08T13:26:42;100555.75;;;15.04;73.58
55757;BME280;41676;44.610;44.078;2023-04-08T13:31:43;100561.25;;;14.96;73.70
55757;BME280;41676;44.610;44.078;2023-04-08T13:36:44;100578.44;;;14.87;74.38
55757;BME280;41676;44.610;44.078;2023-04-08T13:41:44;100578.03;;;14.69;74.53
55757;BME280;41676;44.610;44.078;2023-04-08T13:46:45;100554.66;;;14.41;75.31
55757;BME280;41676;44.610;44.078;2023-04-08T13:51:46;100506.84;;;13.95;75.68
55757;BME280;41676;44.610;44.078;2023-04-08T13:56:47;100566.19;;;14.27;75.73
55757;BME280;41676;44.610;44.078;2023-04-08T14:01:48;100594.59;;;14.28;76.55
55757;BME280;41676;44.610;44.078;2023-04-08T14:06:53;100577.84;;;14.04;78.00
55757;BME280;41676;44.610;44.078;2023-04-08T14:11:54;100580.06;;;13.86;79.43
55757;BME280;41676;44.610;44.078;2023-04-08T14:16:55;100531.66;;;13.36;81.14
55757;BME280;41676;44.610;44.078;2023-04-08T14:21:56;100577.59;;;13.46;82.24
55757;BME280;41676;44.610;44.078;2023-04-08T14:26:57;100575.63;;;13.26;83.36
55757;BME280;41676;44.610;44.078;2023-04-08T14:31:58;100583.34;;;13.12;84.78
55757;BME280;41676;44.610;44.078;2023-04-08T14:36:59;100607.19;;;13.14;85.75
55757;BME280;41676;44.610;44.078;2023-04-08T14:41:59;100605.75;;;13.03;87.04
55757;BME280;41676;44.610;44.078;2023-04-08T14:47:01;100603.50;;;12.92;88.08
55757;BME280;41676;44.610;44.078;2023-04-08T14:52:02;100613.69;;;12.88;88.24
55757;BME280;41676;44.610;44.078;2023-04-08T14:57:03;100593.53;;;12.63;89.36
55757;BME280;41676;44.610;44.078;2023-04-08T15:02:04;100629.56;;;12.82;90.04
55757;BME280;41676;44.610;44.078;2023-04-08T15:07:04;100635.91;;;12.81;90.40
55757;BME280;41676;44.610;44.078;2023-04-08T15:12:05;100627.28;;;12.70;91.39
55757;BME280;41676;44.610;44.078;2023-04-08T15:17:06;100645.59;;;12.73;91.81
55757;BME280;41676;44.610;44.078;2023-04-08T15:22:08;100635.84;;;12.66;92.52
55757;BME280;41676;44.610;44.078;2023-04-08T15:27:09;100636.25;;;12.46;93.54
55757;BME280;41676;44.610;44.078;2023-04-08T15:32:09;100649.88;;;12.51;94.61
55757;BME280;41676;44.610;44.078;2023-04-08T15:37:10;100635.78;;;12.34;95.04
55757;BME280;41676;44.610;44.078;2023-04-08T15:42:11;100671.41;;;12.42;95.75
55757;BME280;41676;44.610;44.078;2023-04-08T15:47:12;100674.91;;;12.34;97.40
55757;BME280;41676;44.610;44.078;2023-04-08T15:52:13;100669.44;;;12.27;98.31
55757;BME280;41676;44.610;44.078;2023-04-08T15:57:14;100686.75;;;12.31;100.00
55757;BME280;41676;44.610;44.078;2023-04-08T16:02:15;100693.09;;;12.30;100.00
55757;BME280;41676;44.610;44.078;2023-04-08T16:07:16;100607.31;;;11.79;100.00
55757;BME280;41676;44.610;44.078;2023-04-08T16:12:17;100714.72;;;12.36;100.00
55757;BME280;41676;44.610;44.078;2023-04-08T16:17:19;100707.44;;;12.21;100.00
55757;BME280;41676;44.610;44.078;2023-04-08T16:22:20;100724.72;;;12.25;100.00
55757;BME280;41676;44.610;44.078;2023-04-08T16:27:21;100682.50;;;11.90;100.00
55757;BME280;41676;44.610;44.078;2023-04-08T16:32:21;100740.56;;;12.19;100.00
55757;BME280;41676;44.610;44.078;2023-04-08T16:37:22;100751.53;;;12.24;100.00
55757;BME280;41676;44.610;44.078;2023-04-08T16:42:23;100752.69;;;12.21;100.00
55757;BME280;41676;44.610;44.078;2023-04-08T16:47:27;100710.97;;;11.89;100.00
55757;BME280;41676;44.610;44.078;2023-04-08T16:52:28;100748.06;;;12.07;100.00
55757;BME280;41676;44.610;44.078;2023-04-08T16:57:28;100726.75;;;11.82;100.00
55757;BME280;41676;44.610;44.078;2023-04-08T17:02:29;100742.22;;;11.87;100.00
55757;BME280;41676;44.610;44.078;2023-04-08T17:07:30;100739.22;;;11.74;100.00
55757;BME280;41676;44.610;44.078;2023-04-08T17:12:31;100774.34;;;11.85;100.00
55757;BME280;41676;44.610;44.078;2023-04-08T17:17:32;100775.81;;;11.80;100.00
55757;BME280;41676;44.610;44.078;2023-04-08T17:22:33;100773.00;;;11.73;100.00
55757;BME280;41676;44.610;44.078;2023-04-08T17:27:33;100684.28;;;11.24;100.00
55757;BME280;41676;44.610;44.078;2023-04-08T17:32:34;100781.81;;;11.82;100.00
55757;BME280;41676;44.610;44.078;2023-04-08T17:37:35;100740.53;;;11.53;100.00
55757;BME280;41676;44.610;44.078;2023-04-08T17:42:36;100768.00;;;11.70;100.00
55757;BME280;41676;44.610;44.078;2023-04-08T17:47:37;100794.44;;;11.80;100.00
55757;BME280;41676;44.610;44.078;2023-04-08T17:52:37;100786.63;;;11.70;100.00
55757;BME280;41676;44.610;44.078;2023-04-08T17:57:38;100799.09;;;11.70;100.00
55757;BME280;41676;44.610;44.078;2023-04-08T18:02:39;100798.75;;;11.64;100.00
55757;BME280;41676;44.610;44.078;2023-04-08T18:07:41;100787.44;;;11.62;100.00
55757;BME280;41676;44.610;44.078;2023-04-08T18:12:41;100715.34;;;11.15;100.00
55757;BME280;41676;44.610;44.078;2023-04-08T18:17:42;100784.59;;;11.56;100.00
55757;BME280;41676;44.610;44.078;2023-04-08T18:22:43;100804.22;;;11.63;100.00
55757;BME280;41676;44.610;44.078;2023-04-08T18:27:44;100624.72;;;10.33;100.00
55757;BME280;41676;44.610;44.078;2023-04-08T18:32:44;100801.00;;;11.35;100.00
55757;BME280;41676;44.610;44.078;2023-04-08T18:37:45;100748.88;;;11.00;100.00
55757;BME280;41676;44.610;44.078;2023-04-08T18:42:46;100835.94;;;11.40;100.00
55757;BME280;41676;44.610;44.078;2023-04-08T18:47:47;100833.41;;;11.30;100.00
55757;BME280;41676;44.610;44.078;2023-04-08T18:52:48;100767.75;;;10.80;100.00
55757;BME280;41676;44.610;44.078;2023-04-08T18:57:49;100841.81;;;11.17;100.00
55757;BME280;41676;44.610;44.078;2023-04-08T19:02:50;100839.34;;;11.16;100.00
55757;BME280;41676;44.610;44.078;2023-04-08T19:07:51;100806.34;;;10.92;100.00
55757;BME280;41676;44.610;44.078;2023-04-08T19:12:52;100850.81;;;11.16;100.00
55757;BME280;41676;44.610;44.078;2023-04-08T19:17:53;100848.28;;;11.15;100.00
55757;BME280;41676;44.610;44.078;2023-04-08T19:22:54;100865.50;;;11.29;100.00
55757;BME280;41676;44.610;44.078;2023-04-08T19:27:55;100860.50;;;11.26;100.00
55757;BME280;41676;44.610;44.078;2023-04-08T19:32:56;100847.16;;;11.17;100.00
55757;BME280;41676;44.610;44.078;2023-04-08T19:37:57;100884.66;;;11.40;100.00
55757;BME280;41676;44.610;44.078;2023-04-08T19:42:58;100893.94;;;11.36;100.00
55757;BME280;41676;44.610;44.078;2023-04-08T19:47:59;100881.16;;;11.06;100.00
55757;BME280;41676;44.610;44.078;2023-04-08T19:53:00;100903.75;;;11.02;100.00
55757;BME280;41676;44.610;44.078;2023-04-08T19:58:01;100868.97;;;10.95;100.00
55757;BME280;41676;44.610;44.078;2023-04-08T20:03:03;100800.31;;;10.56;100.00
55757;BME280;41676;44.610;44.078;2023-04-08T20:08:04;100868.19;;;11.03;100.00
55757;BME280;41676;44.610;44.078;2023-04-08T20:13:05;100892.22;;;11.27;100.00
55757;BME280;41676;44.610;44.078;2023-04-08T20:18:06;100902.72;;;11.29;100.00
55757;BME280;41676;44.610;44.078;2023-04-08T20:23:07;100823.19;;;10.75;100.00
55757;BME280;41676;44.610;44.078;2023-04-08T20:28:08;100878.03;;;11.10;100.00
55757;BME280;41676;44.610;44.078;2023-04-08T20:33:09;100815.03;;;10.77;100.00
55757;BME280;41676;44.610;44.078;2023-04-08T20:38:09;100904.25;;;11.31;100.00
55757;BME280;41676;44.610;44.078;2023-04-08T20:43:10;100749.06;;;10.38;100.00
55757;BME280;41676;44.610;44.078;2023-04-08T20:48:11;100890.06;;;11.23;100.00
55757;BME280;41676;44.610;44.078;2023-04-08T20:53:12;100880.88;;;11.17;100.00
55757;BME280;41676;44.610;44.078;2023-04-08T20:58:13;100902.53;;;11.22;100.00
55757;BME280;41676;44.610;44.078;2023-04-08T21:03:14;100875.53;;;11.09;100.00
55757;BME280;41676;44.610;44.078;2023-04-08T21:08:16;100893.88;;;11.20;100.00
55757;BME280;41676;44.610;44.078;2023-04-08T21:13:17;100895.19;;;11.16;100.00
55757;BME280;41676;44.610;44.078;2023-04-08T21:18:17;100897.84;;;11.16;100.00
55757;BME280;41676;44.610;44.078;2023-04-08T21:23:18;100864.00;;;11.00;100.00
55757;BME280;41676;44.610;44.078;2023-04-08T21:28:19;100871.88;;;11.10;100.00
55757;BME280;41676;44.610;44.078;2023-04-08T21:33:20;100847.88;;;10.93;100.00
55757;BME280;41676;44.610;44.078;2023-04-08T21:38:21;100861.53;;;10.99;100.00
55757;BME280;41676;44.610;44.078;2023-04-08T21:43:22;100868.66;;;10.98;100.00
55757;BME280;41676;44.610;44.078;2023-04-08T21:48:23;100899.66;;;11.15;100.00
55757;BME280;41676;44.610;44.078;2023-04-08T21:53:24;100894.44;;;11.06;100.00
55757;BME280;41676;44.610;44.078;2023-04-08T21:58:25;100881.09;;;10.97;100.00
55757;BME280;41676;44.610;44.078;2023-04-08T22:03:27;100817.53;;;10.52;100.00
55757;BME280;41676;44.610;44.078;2023-04-08T22:08:28;100815.38;;;10.47;100.00
55757;BME280;41676;44.610;44.078;2023-04-08T22:13:29;100902.38;;;10.97;100.00
55757;BME280;41676;44.610;44.078;2023-04-08T22:18:30;100822.19;;;10.50;100.00
55757;BME280;41676;44.610;44.078;2023-04-08T22:23:31;100848.56;;;10.69;100.00
55757;BME280;41676;44.610;44.078;2023-04-08T22:28:32;100889.56;;;10.93;100.00
55757;BME280;41676;44.610;44.078;2023-04-08T22:33:33;100906.34;;;10.93;100.00
55757;BME280;41676;44.610;44.078;2023-04-08T22:38:34;100902.53;;;10.96;100.00
55757;BME280;41676;44.610;44.078;2023-04-08T22:43:35;100795.00;;;10.30;100.00
55757;BME280;41676;44.610;44.078;2023-04-08T22:48:36;100868.66;;;10.72;100.00
55757;BME280;41676;44.610;44.078;2023-04-08T22:53:37;100862.03;;;10.76;100.00
55757;BME280;41676;44.610;44.078;2023-04-08T22:58:37;100883.19;;;10.86;100.00
55757;BME280;41676;44.610;44.078;2023-04-08T23:03:38;100913.69;;;11.00;100.00
55757;BME280;41676;44.610;44.078;2023-04-08T23:08:39;100842.34;;;10.61;100.00
55757;BME280;41676;44.610;44.078;2023-04-08T23:13:40;100825.19;;;10.47;100.00
55757;BME280;41676;44.610;44.078;2023-04-08T23:18:41;100815.00;;;10.42;100.00
55757;BME280;41676;44.610;44.078;2023-04-08T23:23:41;100898.69;;;10.90;100.00
55757;BME280;41676;44.610;44.078;2023-04-08T23:28:42;100878.28;;;10.73;100.00
55757;BME280;41676;44.610;44.078;2023-04-08T23:33:43;100902.84;;;10.93;100.00
55757;BME280;41676;44.610;44.078;2023-04-08T23:38:44;100826.25;;;10.36;100.00
55757;BME280;41676;44.610;44.078;2023-04-08T23:43:45;100917.28;;;10.90;100.00
55757;BME280;41676;44.610;44.078;2023-04-08T23:48:46;100907.66;;;10.89;100.00
55757;BME280;41676;44.610;44.078;2023-04-08T23:53:46;100918.63;;;10.94;100.00
55757;BME280;41676;44.610;44.078;2023-04-08T23:58:47;100918.22;;;10.81;100.00
